createdAt,value
2018-11-26T00:01:30.424Z,24.50
2018-11-26T00:03:59.648Z,22.87
2018-11-26T00:06:28.477Z,25.83
2018-11-26T00:08:57.684Z,24.30
2018-11-26T00:11:28.792Z,22.23
2018-11-26T00:13:57.773Z,26.17
2018-11-26T00:16:26.569Z,22.63
2018-11-26T00:18:55.360Z,22.87
2018-11-26T00:21:25.087Z,24.67
2018-11-26T00:23:54.011Z,27.10
2018-11-26T00:26:22.821Z,23.03
2018-11-26T00:28:51.607Z,26.53
2018-11-26T00:35:34.725Z,24.87
2018-11-26T00:38:03.489Z,24.77
2018-11-26T00:40:32.398Z,22.23
2018-11-26T00:43:01.241Z,23.93
2018-11-26T00:45:30.156Z,23.03
2018-11-26T00:47:58.940Z,22.57
2018-11-26T00:50:27.761Z,22.40
2018-11-26T00:52:56.724Z,24.93
2018-11-26T00:55:25.696Z,23.13
2018-11-26T00:57:54.479Z,24.20
2018-11-26T01:00:23.276Z,23.87
2018-11-26T01:02:52.232Z,21.73
2018-11-26T01:05:39.488Z,22.77
2018-11-26T01:08:08.309Z,24.70
2018-11-26T01:10:37.252Z,22.87
2018-11-26T01:13:06.572Z,23.07
2018-11-26T01:15:35.424Z,23.37
2018-11-26T01:18:05.054Z,22.87
2018-11-26T01:20:33.918Z,23.33
2018-11-26T01:23:02.698Z,25.03
2018-11-26T01:25:35.943Z,25.07
2018-11-26T01:28:08.940Z,25.70
2018-11-26T01:31:02.098Z,27.73
2018-11-26T01:33:34.972Z,25.83
2018-11-26T01:36:04.355Z,27.80
2018-11-26T01:38:33.163Z,27.47
2018-11-26T01:41:02.270Z,30.40
2018-11-26T01:43:31.144Z,27.10
2018-11-26T01:46:00.096Z,24.03
2018-11-26T01:48:28.903Z,26.13
2018-11-26T01:50:57.714Z,27.67
2018-11-26T01:53:26.700Z,25.07
2018-11-26T01:55:55.600Z,24.63
2018-11-26T01:58:24.465Z,24.97
2018-11-26T02:00:53.253Z,25.37
2018-11-26T02:03:22.070Z,25.90
2018-11-26T02:05:50.904Z,26.87
2018-11-26T02:08:19.829Z,26.77
2018-11-26T02:10:48.771Z,28.67
2018-11-26T02:13:17.541Z,26.07
2018-11-26T02:15:46.412Z,26.53
2018-11-26T02:18:15.327Z,29.80
2018-11-26T02:20:44.325Z,26.37
2018-11-26T02:23:13.092Z,25.37
2018-11-26T02:25:41.913Z,26.40
2018-11-26T02:28:13.041Z,26.60
2018-11-26T02:30:42.220Z,27.57
2018-11-26T02:33:10.988Z,27.23
2018-11-26T02:35:39.788Z,25.13
2018-11-26T02:38:12.005Z,20.73
2018-11-26T02:40:40.784Z,23.10
2018-11-26T02:43:12.475Z,22.40
2018-11-26T02:45:41.281Z,22.07
2018-11-26T02:48:10.072Z,22.80
2018-11-26T02:50:38.869Z,22.90
2018-11-26T02:53:07.635Z,21.60
2018-11-26T02:55:36.441Z,22.77
2018-11-26T02:58:05.472Z,20.53
2018-11-26T03:00:34.267Z,19.27
2018-11-26T03:03:03.088Z,20.67
2018-11-26T03:05:31.852Z,20.57
2018-11-26T03:08:00.640Z,19.70
2018-11-26T03:10:29.428Z,22.43
2018-11-26T03:12:58.242Z,20.33
2018-11-26T03:15:27.027Z,21.90
2018-11-26T03:17:55.839Z,20.57
2018-11-26T03:20:24.627Z,20.93
2018-11-26T03:22:53.411Z,20.23
2018-11-26T03:25:22.182Z,19.77
2018-11-26T03:27:50.961Z,18.03
2018-11-26T03:30:20.969Z,18.70
2018-11-26T03:32:49.857Z,17.40
2018-11-26T03:35:18.643Z,16.60
2018-11-26T03:37:47.535Z,15.90
2018-11-26T03:40:16.320Z,17.33
2018-11-26T03:42:45.117Z,18.17
2018-11-26T03:45:17.611Z,19.63
2018-11-26T03:47:46.396Z,17.60
2018-11-26T03:50:15.271Z,15.00
2018-11-26T03:52:45.251Z,18.97
2018-11-26T03:55:14.225Z,16.93
2018-11-26T03:57:43.006Z,15.47
2018-11-26T04:00:13.905Z,17.33
2018-11-26T04:02:42.689Z,18.03
2018-11-26T04:05:11.705Z,16.43
2018-11-26T04:07:40.653Z,17.13
2018-11-26T04:10:11.460Z,17.73
2018-11-26T04:12:40.239Z,15.70
2018-11-26T04:15:12.150Z,15.33
2018-11-26T04:17:40.983Z,15.77
2018-11-26T04:20:09.769Z,17.33
2018-11-26T04:22:38.547Z,15.73
2018-11-26T04:25:08.420Z,16.90
2018-11-26T04:27:37.207Z,16.43
2018-11-26T04:30:08.753Z,14.60
2018-11-26T04:32:37.947Z,15.97
2018-11-26T04:35:06.924Z,14.33
2018-11-26T04:37:35.683Z,20.40
2018-11-26T04:40:04.932Z,16.30
2018-11-26T04:42:33.754Z,24.20
2018-11-26T04:45:02.609Z,21.80
2018-11-26T04:47:31.431Z,22.00
2018-11-26T04:50:00.264Z,17.83
2018-11-26T04:52:29.029Z,21.30
2018-11-26T04:54:57.825Z,15.23
2018-11-26T04:57:26.589Z,16.07
2018-11-26T04:59:55.380Z,15.20
2018-11-26T05:02:24.145Z,15.73
2018-11-26T05:04:52.952Z,17.40
2018-11-26T05:07:21.721Z,14.50
2018-11-26T05:09:50.502Z,15.33
2018-11-26T05:12:19.321Z,16.07
2018-11-26T05:14:48.117Z,18.73
2018-11-26T05:17:16.897Z,17.70
2018-11-26T05:19:45.684Z,17.53
2018-11-26T05:22:14.456Z,17.30
2018-11-26T05:24:43.243Z,13.83
2018-11-26T05:27:12.029Z,13.27
2018-11-26T05:29:40.847Z,15.10
2018-11-26T05:32:09.625Z,12.70
2018-11-26T05:34:38.429Z,11.50
2018-11-26T05:37:07.269Z,12.53
2018-11-26T05:39:36.147Z,12.13
2018-11-26T05:42:04.973Z,13.07
2018-11-26T05:44:33.741Z,10.30
2018-11-26T05:47:02.534Z,11.50
2018-11-26T05:49:31.301Z,12.03
2018-11-26T05:52:00.141Z,11.90
2018-11-26T05:54:28.924Z,13.30
2018-11-26T05:56:57.720Z,12.97
2018-11-26T05:59:26.480Z,13.80
2018-11-26T06:01:55.312Z,13.67
2018-11-26T06:04:24.108Z,22.13
2018-11-26T06:06:52.912Z,19.63
2018-11-26T06:09:21.679Z,24.83
2018-11-26T06:11:50.502Z,19.20
2018-11-26T06:14:19.264Z,16.57
2018-11-26T06:16:53.494Z,21.07
2018-11-26T06:19:16.830Z,19.57
2018-11-26T06:21:45.884Z,22.83
2018-11-26T06:24:14.677Z,19.70
2018-11-26T06:26:43.559Z,19.43
2018-11-26T06:29:12.381Z,19.37
2018-11-26T06:31:41.196Z,21.13
2018-11-26T06:34:09.960Z,23.57
2018-11-26T06:36:38.750Z,19.63
2018-11-26T06:39:09.003Z,22.63
2018-11-26T06:41:37.983Z,19.50
2018-11-26T06:44:07.102Z,20.50
2018-11-26T06:46:35.893Z,19.30
2018-11-26T06:49:04.787Z,21.73
2018-11-26T06:51:33.786Z,20.87
2018-11-26T06:54:02.581Z,21.77
2018-11-26T06:56:31.378Z,21.47
2018-11-26T06:59:00.139Z,22.33
2018-11-26T07:01:29.189Z,23.63
2018-11-26T07:03:57.962Z,28.43
2018-11-26T07:06:26.743Z,23.93
2018-11-26T07:08:55.672Z,22.17
2018-11-26T07:11:24.465Z,23.00
2018-11-26T07:13:53.236Z,26.93
2018-11-26T07:16:22.090Z,21.63
2018-11-26T07:18:50.872Z,23.03
2018-11-26T07:21:19.660Z,22.87
2018-11-26T07:23:48.448Z,22.87
2018-11-26T07:26:17.246Z,23.63
2018-11-26T07:28:46.024Z,25.10
2018-11-26T07:31:14.828Z,23.67
2018-11-26T07:33:43.592Z,23.93
2018-11-26T07:36:12.385Z,24.30
2018-11-26T07:38:41.142Z,23.73
2018-11-26T07:41:09.952Z,26.43
2018-11-26T07:43:38.811Z,24.00
2018-11-26T07:46:07.653Z,24.37
2018-11-26T07:48:36.441Z,27.83
2018-11-26T07:51:05.708Z,28.27
2018-11-26T07:53:34.528Z,28.80
2018-11-26T07:56:03.332Z,28.33
2018-11-26T07:58:32.181Z,26.43
2018-11-26T08:01:00.971Z,26.43
2018-11-26T08:03:29.737Z,23.23
2018-11-26T08:05:58.519Z,28.17
2018-11-26T08:08:27.288Z,26.73
2018-11-26T08:10:56.083Z,24.37
2018-11-26T08:13:24.851Z,26.40
2018-11-26T08:15:53.654Z,28.97
2018-11-26T08:18:22.420Z,32.67
2018-11-26T08:20:51.227Z,41.57
2018-11-26T08:23:19.976Z,37.53
2018-11-26T08:25:48.776Z,31.53
2018-11-26T08:28:17.880Z,28.83
2018-11-26T08:30:46.703Z,29.47
2018-11-26T08:33:15.568Z,32.47
2018-11-26T08:35:44.349Z,28.13
2018-11-26T08:38:18.473Z,27.93
2018-11-26T08:40:53.509Z,24.47
2018-11-26T08:43:27.812Z,29.87
2018-11-26T08:45:58.348Z,24.97
2018-11-26T08:48:27.724Z,46.17
2018-11-26T08:50:57.561Z,38.77
2018-11-26T08:53:26.328Z,43.60
2018-11-26T08:55:55.146Z,28.50
2018-11-26T08:58:23.922Z,29.13
2018-11-26T09:00:58.354Z,28.77
2018-11-26T09:03:32.544Z,29.40
2018-11-26T09:06:03.474Z,30.43
2018-11-26T09:08:33.206Z,36.13
2018-11-26T09:11:03.193Z,24.90
2018-11-26T09:13:31.961Z,28.97
2018-11-26T09:16:00.768Z,32.00
2018-11-26T09:18:29.566Z,35.37
2018-11-26T09:20:58.487Z,27.13
2018-11-26T09:23:27.276Z,26.77
2018-11-26T09:25:56.116Z,26.33
2018-11-26T09:28:24.902Z,27.40
2018-11-26T09:30:53.690Z,27.63
2018-11-26T09:33:22.472Z,32.17
2018-11-26T09:35:51.326Z,28.60
2018-11-26T09:38:20.101Z,27.30
2018-11-26T09:40:48.895Z,29.37
2018-11-26T09:43:17.728Z,29.33
2018-11-26T09:45:46.548Z,29.03
2018-11-26T09:48:15.445Z,30.87
2018-11-26T09:50:44.256Z,33.80
2018-11-26T09:53:13.038Z,38.33
2018-11-26T09:55:41.825Z,37.77
2018-11-26T09:58:10.704Z,36.30
2018-11-26T10:00:39.484Z,35.60
2018-11-26T10:05:59.839Z,30.43
2018-11-26T10:08:28.624Z,28.43
2018-11-26T10:10:57.425Z,32.20
2018-11-26T10:13:26.204Z,34.90
2018-11-26T10:15:55.026Z,31.47
2018-11-26T10:18:23.837Z,27.10
2018-11-26T10:20:52.649Z,29.40
2018-11-26T10:23:21.469Z,27.03
2018-11-26T10:25:50.283Z,30.70
2018-11-26T10:28:19.125Z,29.47
2018-11-26T10:30:47.927Z,28.27
2018-11-26T10:33:16.723Z,29.57
2018-11-26T10:35:45.506Z,26.03
2018-11-26T10:38:14.273Z,27.53
2018-11-26T10:40:43.077Z,25.87
2018-11-26T10:43:11.944Z,26.63
2018-11-26T10:45:40.668Z,40.90
2018-11-26T10:48:09.453Z,37.37
2018-11-26T10:50:38.272Z,31.87
2018-11-26T10:53:07.303Z,31.83
2018-11-26T10:55:36.928Z,27.93
2018-11-26T10:58:06.633Z,34.07
2018-11-26T11:00:40.286Z,30.00
2018-11-26T11:03:09.055Z,28.43
2018-11-26T11:05:37.873Z,32.33
2018-11-26T11:08:07.417Z,31.50
2018-11-26T11:10:36.224Z,38.70
2018-11-26T11:13:05.807Z,33.73
2018-11-26T11:15:34.577Z,33.10
2018-11-26T11:18:03.368Z,35.10
2018-11-26T11:20:32.135Z,32.93
2018-11-26T11:23:00.897Z,32.47
2018-11-26T11:25:29.694Z,33.13
2018-11-26T11:27:58.462Z,36.00
2018-11-26T11:30:29.145Z,29.97
2018-11-26T11:32:57.973Z,31.10
2018-11-26T11:35:26.761Z,36.30
2018-11-26T11:37:55.649Z,32.90
2018-11-26T11:40:27.774Z,29.80
2018-11-26T11:42:57.399Z,32.67
2018-11-26T11:45:26.996Z,33.70
2018-11-26T11:47:55.789Z,31.80
2018-11-26T11:50:24.586Z,26.53
2018-11-26T11:52:53.366Z,29.10
2018-11-26T11:55:23.087Z,28.33
2018-11-26T11:57:52.215Z,27.90
2018-11-26T12:00:36.971Z,30.43
2018-11-26T12:03:07.998Z,30.07
2018-11-26T12:05:36.785Z,32.07
2018-11-26T12:08:06.922Z,38.07
2018-11-26T12:10:35.741Z,34.60
2018-11-26T12:13:05.036Z,32.30
2018-11-26T12:15:33.839Z,36.37
2018-11-26T12:18:02.614Z,32.93
2018-11-26T12:20:31.394Z,31.73
2018-11-26T12:23:00.180Z,27.67
2018-11-26T12:25:28.977Z,35.47
2018-11-26T12:27:57.755Z,30.17
2018-11-26T12:30:27.961Z,33.03
2018-11-26T12:32:56.750Z,31.33
2018-11-26T12:35:25.555Z,31.43
2018-11-26T12:37:54.357Z,30.23
2018-11-26T12:40:24.836Z,34.83
2018-11-26T12:42:55.468Z,34.57
2018-11-26T12:45:28.192Z,32.10
2018-11-26T12:47:57.187Z,34.93
2018-11-26T12:50:26.050Z,30.60
2018-11-26T12:52:54.838Z,30.80
2018-11-26T12:55:24.113Z,38.40
2018-11-26T12:57:53.641Z,36.47
2018-11-26T13:00:27.530Z,33.50
2018-11-26T13:03:05.523Z,34.50
2018-11-26T13:05:34.317Z,34.23
2018-11-26T13:08:03.090Z,32.17
2018-11-26T13:10:31.936Z,37.37
2018-11-26T13:13:00.702Z,33.63
2018-11-26T13:15:29.852Z,33.70
2018-11-26T13:17:58.599Z,30.03
2018-11-26T13:20:28.425Z,30.13
2018-11-26T13:22:57.269Z,32.67
2018-11-26T13:25:29.198Z,35.63
2018-11-26T13:27:59.958Z,35.40
2018-11-26T13:30:33.794Z,34.23
2018-11-26T13:33:03.936Z,34.63
2018-11-26T13:35:32.773Z,36.47
2018-11-26T13:38:01.529Z,40.57
2018-11-26T13:40:30.328Z,37.83
2018-11-26T13:42:59.190Z,40.73
2018-11-26T13:45:33.790Z,33.90
2018-11-26T13:48:03.077Z,32.90
2018-11-26T13:50:36.465Z,31.67
2018-11-26T13:53:05.693Z,31.63
2018-11-26T13:55:34.711Z,27.97
2018-11-26T13:58:03.530Z,27.70
2018-11-26T14:00:32.325Z,28.40
2018-11-26T14:03:01.094Z,31.80
2018-11-26T14:05:29.904Z,27.87
2018-11-26T14:07:58.695Z,28.67
2018-11-26T14:10:27.954Z,28.33
2018-11-26T14:13:02.202Z,45.97
2018-11-26T14:15:30.980Z,38.80
2018-11-26T14:17:59.749Z,32.17
2018-11-26T14:20:28.518Z,36.60
2018-11-26T14:22:57.302Z,45.60
2018-11-26T14:25:26.314Z,26.73
2018-11-26T14:30:46.233Z,20.70
2018-11-26T14:33:15.052Z,20.63
2018-11-26T14:35:44.050Z,14.60
2018-11-26T14:38:12.940Z,17.23
2018-11-26T14:40:47.477Z,17.23
2018-11-26T14:43:16.275Z,21.17
2018-11-26T14:45:45.189Z,23.73
2018-11-26T14:48:14.055Z,20.50
2018-11-26T14:50:42.864Z,16.73
2018-11-26T14:56:02.794Z,15.20
2018-11-26T14:58:31.572Z,18.33
2018-11-26T15:01:00.498Z,15.60
2018-11-26T15:03:29.281Z,28.50
2018-11-26T15:05:58.086Z,30.50
2018-11-26T15:08:26.877Z,33.27
2018-11-26T15:10:55.654Z,33.00
2018-11-26T15:13:24.437Z,25.03
2018-11-26T15:15:53.249Z,24.83
2018-11-26T15:18:22.040Z,24.37
2018-11-26T15:20:50.858Z,21.37
2018-11-26T15:23:19.651Z,21.90
2018-11-26T15:25:48.461Z,14.73
2018-11-26T15:28:17.530Z,15.77
2018-11-26T15:30:46.314Z,17.23
2018-11-26T15:33:15.113Z,16.97
2018-11-26T15:35:43.909Z,17.13
2018-11-26T15:38:12.759Z,15.20
2018-11-26T15:40:41.540Z,18.93
2018-11-26T15:43:10.333Z,19.87
2018-11-26T15:45:39.134Z,24.20
2018-11-26T15:48:10.469Z,27.30
2018-11-26T15:50:39.255Z,36.87
2018-11-26T15:53:09.013Z,29.07
2018-11-26T15:55:37.879Z,30.47
2018-11-26T15:58:07.410Z,31.37
2018-11-26T16:00:36.321Z,30.57
2018-11-26T16:03:06.074Z,35.73
2018-11-26T16:05:35.085Z,35.60
2018-11-26T16:08:08.729Z,32.93
2018-11-26T16:10:37.576Z,23.47
2018-11-26T16:13:08.625Z,22.93
2018-11-26T16:15:39.153Z,20.00
2018-11-26T16:18:11.234Z,18.80
2018-11-26T16:20:40.033Z,19.30
2018-11-26T16:23:09.728Z,24.77
2018-11-26T16:25:43.771Z,18.83
2018-11-26T16:28:17.248Z,28.40
2018-11-26T16:30:46.244Z,21.33
2018-11-26T16:33:15.021Z,20.83
2018-11-26T16:35:43.817Z,20.60
2018-11-26T16:38:13.509Z,29.10
2018-11-26T16:40:42.286Z,17.17
2018-11-26T16:43:11.097Z,18.23
2018-11-26T16:45:39.931Z,17.97
2018-11-26T16:48:08.731Z,16.93
2018-11-26T16:50:37.974Z,19.77
2018-11-26T16:53:07.489Z,21.03
2018-11-26T16:55:36.358Z,21.83
2018-11-26T16:58:05.981Z,16.37
2018-11-26T17:00:34.776Z,22.07
2018-11-26T17:03:03.609Z,15.53
2018-11-26T17:05:37.287Z,15.83
2018-11-26T17:08:08.595Z,14.57
2018-11-26T17:10:37.484Z,17.00
2018-11-26T17:13:06.614Z,15.67
2018-11-26T17:15:35.410Z,14.97
2018-11-26T17:18:04.594Z,18.00
2018-11-26T17:20:33.397Z,17.10
2018-11-26T17:23:02.251Z,19.70
2018-11-26T17:25:31.615Z,18.20
2018-11-26T17:28:00.429Z,16.53
2018-11-26T17:30:29.211Z,18.03
2018-11-26T17:33:01.123Z,17.73
2018-11-26T17:35:30.277Z,17.47
2018-11-26T17:37:59.099Z,18.23
2018-11-26T17:40:28.040Z,19.57
2018-11-26T17:42:56.881Z,18.63
2018-11-26T17:45:26.730Z,15.57
2018-11-26T17:47:58.521Z,15.17
2018-11-26T17:50:33.111Z,15.37
2018-11-26T17:53:01.897Z,17.30
2018-11-26T17:55:30.793Z,19.80
2018-11-26T17:57:59.633Z,22.40
2018-11-26T18:00:31.966Z,20.77
2018-11-26T18:03:00.821Z,20.00
2018-11-26T18:05:30.554Z,18.57
2018-11-26T18:08:02.698Z,19.17
2018-11-26T18:10:31.544Z,20.53
2018-11-26T18:13:00.425Z,22.77
2018-11-26T18:15:29.365Z,19.33
2018-11-26T18:17:58.228Z,20.97
2018-11-26T18:20:27.174Z,18.80
2018-11-26T18:22:56.193Z,29.70
2018-11-26T18:25:25.396Z,48.40
2018-11-26T18:27:59.883Z,39.33
2018-11-26T18:30:31.558Z,18.90
2018-11-26T18:33:00.378Z,17.47
2018-11-26T18:35:29.197Z,17.73
2018-11-26T18:37:57.971Z,25.17
2018-11-26T18:40:26.757Z,27.23
2018-11-26T18:42:55.786Z,29.77
2018-11-26T18:45:24.597Z,21.47
2018-11-26T18:47:53.434Z,19.37
2018-11-26T18:50:22.309Z,23.80
2018-11-26T18:52:51.581Z,22.00
2018-11-26T18:55:20.502Z,20.80
2018-11-26T18:57:49.830Z,21.97
2018-11-26T19:00:19.913Z,24.47
2018-11-26T19:02:48.862Z,25.00
2018-11-26T19:05:18.405Z,33.10
2018-11-26T19:07:47.257Z,49.37
2018-11-26T19:10:18.714Z,42.57
2018-11-26T19:12:57.627Z,31.10
2018-11-26T19:15:30.260Z,35.07
2018-11-26T19:18:01.624Z,24.97
2018-11-26T19:20:30.406Z,20.43
2018-11-26T19:22:59.205Z,23.50
2018-11-26T19:25:28.340Z,23.93
2018-11-26T19:27:57.194Z,22.70
2018-11-26T19:30:25.979Z,24.80
2018-11-26T19:32:58.965Z,22.90
2018-11-26T19:35:27.746Z,23.20
2018-11-26T19:37:56.572Z,23.40
2018-11-26T19:40:25.429Z,23.53
2018-11-26T19:42:54.237Z,25.43
2018-11-26T19:45:23.031Z,20.90
2018-11-26T19:47:51.842Z,21.50
2018-11-26T19:50:20.663Z,20.30
2018-11-26T19:52:51.089Z,40.60
2018-11-26T19:55:21.014Z,22.67
2018-11-26T19:57:49.990Z,25.77
2018-11-26T20:00:23.838Z,23.77
2018-11-26T20:03:04.068Z,21.37
2018-11-26T20:06:07.588Z,22.57
2018-11-26T20:08:36.499Z,19.17
2018-11-26T20:11:05.997Z,19.53
2018-11-26T20:13:34.915Z,20.60
2018-11-26T20:16:04.150Z,23.47
2018-11-26T20:18:32.941Z,22.90
2018-11-26T20:21:01.740Z,30.70
2018-11-26T20:23:30.558Z,21.97
2018-11-26T20:25:59.435Z,20.40
2018-11-26T20:28:28.490Z,18.77
2018-11-26T20:30:57.310Z,18.17
2018-11-26T20:33:27.098Z,18.93
2018-11-26T20:35:56.091Z,20.03
2018-11-26T20:38:24.918Z,19.93
2018-11-26T20:40:53.790Z,19.43
2018-11-26T20:43:22.753Z,17.73
2018-11-26T20:45:51.698Z,19.07
2018-11-26T20:48:20.646Z,16.07
2018-11-26T20:50:52.563Z,18.27
2018-11-26T20:53:24.278Z,18.63
2018-11-26T20:55:53.166Z,16.23
2018-11-26T20:58:21.985Z,16.13
2018-11-26T21:00:50.890Z,16.30
2018-11-26T21:03:20.709Z,17.73
2018-11-26T21:05:49.569Z,21.30
2018-11-26T21:08:19.282Z,20.07
2018-11-26T21:10:48.500Z,27.27
2018-11-26T21:13:17.907Z,17.70
2018-11-26T21:15:46.710Z,18.63
2018-11-26T21:18:15.546Z,21.23
2018-11-26T21:20:47.078Z,17.73
2018-11-26T21:23:18.204Z,16.60
2018-11-26T21:25:47.090Z,16.77
2018-11-26T21:28:16.320Z,17.73
2018-11-26T21:30:45.192Z,17.37
2018-11-26T21:33:14.014Z,17.43
2018-11-26T21:35:44.675Z,17.03
2018-11-26T21:38:13.522Z,16.30
2018-11-26T21:40:43.404Z,18.80
2018-11-26T21:43:12.537Z,17.17
2018-11-26T21:45:48.713Z,18.63
2018-11-26T21:48:18.670Z,19.83
2018-11-26T21:50:47.899Z,17.77
2018-11-26T21:53:16.955Z,20.50
2018-11-26T21:55:45.782Z,21.30
2018-11-26T21:58:14.560Z,20.57
2018-11-26T22:00:44.537Z,23.40
2018-11-26T22:03:14.148Z,22.33
2018-11-26T22:05:45.279Z,21.70
2018-11-26T22:08:14.396Z,21.57
2018-11-26T22:10:44.572Z,20.70
2018-11-26T22:13:15.408Z,21.97
2018-11-26T22:15:44.240Z,20.23
2018-11-26T22:18:13.261Z,18.47
2018-11-26T22:20:42.211Z,21.20
2018-11-26T22:23:13.030Z,20.23
2018-11-26T22:25:42.171Z,18.93
2018-11-26T22:28:12.023Z,19.93
2018-11-26T22:30:41.389Z,21.43
2018-11-26T22:33:10.468Z,18.43
2018-11-26T22:35:40.280Z,19.00
2018-11-26T22:38:09.474Z,17.97
2018-11-26T22:40:38.554Z,18.67
2018-11-26T22:43:08.492Z,18.80
2018-11-26T22:45:37.551Z,39.00
2018-11-26T22:48:10.505Z,27.07
2018-11-26T22:50:41.718Z,18.80
2018-11-26T22:53:10.689Z,19.77
2018-11-26T22:55:39.736Z,18.20
2018-11-26T22:58:10.038Z,20.20
2018-11-26T23:00:53.253Z,16.90
2018-11-26T23:03:26.170Z,18.93
2018-11-26T23:05:55.552Z,17.30
2018-11-26T23:08:24.449Z,22.63
2018-11-26T23:10:53.311Z,22.90
2018-11-26T23:13:22.114Z,21.73
2018-11-26T23:15:50.913Z,18.60
2018-11-26T23:18:19.801Z,25.90
2018-11-26T23:20:48.766Z,24.53
2018-11-26T23:23:17.737Z,30.17
2018-11-26T23:25:46.558Z,40.37
2018-11-26T23:28:15.398Z,27.30
2018-11-26T23:30:44.315Z,40.07
2018-11-26T23:33:13.263Z,35.27
2018-11-26T23:35:42.112Z,27.93
2018-11-26T23:38:10.950Z,36.47
2018-11-26T23:40:40.931Z,36.83
2018-11-26T23:43:09.938Z,47.23
2018-11-26T23:45:38.729Z,27.80
2018-11-26T23:48:07.686Z,27.23
2018-11-26T23:50:36.765Z,50.03
2018-11-26T23:53:06.272Z,22.10
2018-11-26T23:55:35.027Z,21.13
2018-11-26T23:58:04.025Z,19.80
